sensor_id;sensor_type;location;lat;lon;timestamp;P1;durP1;ratioP1;P2;durP2;ratioP2
6412;SDS011;3239;48.714;9.472;2022-12-20T00:00:56;47.97;;;24.83;;
6412;SDS011;3239;48.714;9.472;2022-12-20T00:03:21;48.90;;;25.20;;
6412;SDS011;3239;48.714;9.472;2022-12-20T00:05:47;47.00;;;24.70;;
6412;SDS011;3239;48.714;9.472;2022-12-20T00:08:13;42.67;;;23.13;;
6412;SDS011;3239;48.714;9.472;2022-12-20T00:10:40;39.53;;;22.60;;
6412;SDS011;3239;48.714;9.472;2022-12-20T00:13:09;49.87;;;25.40;;
6412;SDS011;3239;48.714;9.472;2022-12-20T00:15:35;45.00;;;24.70;;
6412;SDS011;3239;48.714;9.472;2022-12-20T00:18:01;43.80;;;22.93;;
6412;SDS011;3239;48.714;9.472;2022-12-20T00:20:27;51.20;;;24.07;;
6412;SDS011;3239;48.714;9.472;2022-12-20T00:22:53;48.87;;;23.37;;
6412;SDS011;3239;48.714;9.472;2022-12-20T00:25:19;48.97;;;23.10;;
6412;SDS011;3239;48.714;9.472;2022-12-20T00:27:46;51.80;;;24.83;;
6412;SDS011;3239;48.714;9.472;2022-12-20T00:30:12;43.60;;;23.60;;
6412;SDS011;3239;48.714;9.472;2022-12-20T00:32:39;47.93;;;24.87;;
6412;SDS011;3239;48.714;9.472;2022-12-20T00:35:05;47.90;;;24.70;;
6412;SDS011;3239;48.714;9.472;2022-12-20T00:37:31;39.60;;;22.57;;
6412;SDS011;3239;48.714;9.472;2022-12-20T00:39:57;40.03;;;21.90;;
6412;SDS011;3239;48.714;9.472;2022-12-20T00:42:23;47.90;;;22.93;;
6412;SDS011;3239;48.714;9.472;2022-12-20T00:44:49;38.07;;;22.70;;
6412;SDS011;3239;48.714;9.472;2022-12-20T00:47:14;50.17;;;25.50;;
6412;SDS011;3239;48.714;9.472;2022-12-20T00:49:40;45.40;;;25.10;;
6412;SDS011;3239;48.714;9.472;2022-12-20T00:52:06;44.47;;;23.83;;
6412;SDS011;3239;48.714;9.472;2022-12-20T00:54:31;42.97;;;23.50;;
6412;SDS011;3239;48.714;9.472;2022-12-20T00:56:57;48.87;;;23.77;;
6412;SDS011;3239;48.714;9.472;2022-12-20T00:59:23;39.80;;;22.80;;
6412;SDS011;3239;48.714;9.472;2022-12-20T01:01:49;42.53;;;22.07;;
6412;SDS011;3239;48.714;9.472;2022-12-20T01:04:15;40.47;;;21.73;;
6412;SDS011;3239;48.714;9.472;2022-12-20T01:06:41;56.13;;;26.80;;
6412;SDS011;3239;48.714;9.472;2022-12-20T01:09:07;43.17;;;23.03;;
6412;SDS011;3239;48.714;9.472;2022-12-20T01:11:35;41.70;;;22.07;;
6412;SDS011;3239;48.714;9.472;2022-12-20T01:14:03;44.83;;;22.10;;
6412;SDS011;3239;48.714;9.472;2022-12-20T01:16:40;44.43;;;23.43;;
6412;SDS011;3239;48.714;9.472;2022-12-20T01:19:11;41.60;;;22.60;;
6412;SDS011;3239;48.714;9.472;2022-12-20T01:21:38;45.47;;;23.27;;
6412;SDS011;3239;48.714;9.472;2022-12-20T01:24:08;47.37;;;23.97;;
6412;SDS011;3239;48.714;9.472;2022-12-20T01:26:35;51.73;;;24.83;;
6412;SDS011;3239;48.714;9.472;2022-12-20T01:29:01;43.30;;;22.80;;
6412;SDS011;3239;48.714;9.472;2022-12-20T01:31:28;44.27;;;23.27;;
6412;SDS011;3239;48.714;9.472;2022-12-20T01:33:54;40.37;;;21.33;;
6412;SDS011;3239;48.714;9.472;2022-12-20T01:36:22;42.80;;;23.23;;
6412;SDS011;3239;48.714;9.472;2022-12-20T01:38:50;45.10;;;24.13;;
6412;SDS011;3239;48.714;9.472;2022-12-20T01:41:21;43.17;;;22.60;;
6412;SDS011;3239;48.714;9.472;2022-12-20T01:46:20;39.23;;;22.20;;
6412;SDS011;3239;48.714;9.472;2022-12-20T01:48:50;49.07;;;24.07;;
6412;SDS011;3239;48.714;9.472;2022-12-20T01:51:35;45.37;;;21.87;;
6412;SDS011;3239;48.714;9.472;2022-12-20T01:54:10;39.60;;;21.87;;
6412;SDS011;3239;48.714;9.472;2022-12-20T01:56:41;44.07;;;20.83;;
6412;SDS011;3239;48.714;9.472;2022-12-20T01:59:10;33.80;;;19.50;;
6412;SDS011;3239;48.714;9.472;2022-12-20T02:01:37;36.70;;;20.17;;
6412;SDS011;3239;48.714;9.472;2022-12-20T02:04:05;52.50;;;25.10;;
6412;SDS011;3239;48.714;9.472;2022-12-20T02:06:31;46.33;;;22.10;;
6412;SDS011;3239;48.714;9.472;2022-12-20T02:08:57;43.53;;;22.00;;
6412;SDS011;3239;48.714;9.472;2022-12-20T02:11:28;41.97;;;22.50;;
6412;SDS011;3239;48.714;9.472;2022-12-20T02:17:30;51.57;;;25.50;;
6412;SDS011;3239;48.714;9.472;2022-12-20T02:26:25;49.90;;;24.50;;
6412;SDS011;3239;48.714;9.472;2022-12-20T02:35:30;43.30;;;21.50;;
6412;SDS011;3239;48.714;9.472;2022-12-20T02:38:01;42.20;;;21.93;;
6412;SDS011;3239;48.714;9.472;2022-12-20T02:40:58;41.70;;;21.00;;
6412;SDS011;3239;48.714;9.472;2022-12-20T02:43:44;39.47;;;20.50;;
6412;SDS011;3239;48.714;9.472;2022-12-20T02:46:36;39.00;;;21.17;;
6412;SDS011;3239;48.714;9.472;2022-12-20T02:49:06;42.53;;;21.10;;
6412;SDS011;3239;48.714;9.472;2022-12-20T02:51:37;30.57;;;18.17;;
6412;SDS011;3239;48.714;9.472;2022-12-20T02:54:08;37.83;;;19.63;;
6412;SDS011;3239;48.714;9.472;2022-12-20T02:56:36;35.70;;;18.80;;
6412;SDS011;3239;48.714;9.472;2022-12-20T02:59:11;42.37;;;20.63;;
6412;SDS011;3239;48.714;9.472;2022-12-20T03:01:44;32.30;;;18.50;;
6412;SDS011;3239;48.714;9.472;2022-12-20T03:04:20;35.00;;;18.67;;
6412;SDS011;3239;48.714;9.472;2022-12-20T03:09:38;33.93;;;18.13;;
6412;SDS011;3239;48.714;9.472;2022-12-20T03:12:06;36.87;;;19.97;;
6412;SDS011;3239;48.714;9.472;2022-12-20T03:14:35;36.20;;;19.40;;
6412;SDS011;3239;48.714;9.472;2022-12-20T03:17:02;35.97;;;19.80;;
6412;SDS011;3239;48.714;9.472;2022-12-20T03:19:28;32.77;;;16.53;;
6412;SDS011;3239;48.714;9.472;2022-12-20T03:21:54;31.23;;;18.10;;
6412;SDS011;3239;48.714;9.472;2022-12-20T03:24:20;31.37;;;18.87;;
6412;SDS011;3239;48.714;9.472;2022-12-20T03:26:46;31.90;;;17.53;;
6412;SDS011;3239;48.714;9.472;2022-12-20T03:29:12;25.40;;;16.27;;
6412;SDS011;3239;48.714;9.472;2022-12-20T03:31:38;32.27;;;18.40;;
6412;SDS011;3239;48.714;9.472;2022-12-20T03:34:04;33.53;;;18.07;;
6412;SDS011;3239;48.714;9.472;2022-12-20T03:36:29;37.60;;;20.30;;
6412;SDS011;3239;48.714;9.472;2022-12-20T03:38:55;43.00;;;21.60;;
6412;SDS011;3239;48.714;9.472;2022-12-20T03:41:21;39.00;;;20.63;;
6412;SDS011;3239;48.714;9.472;2022-12-20T03:43:48;35.90;;;19.97;;
6412;SDS011;3239;48.714;9.472;2022-12-20T03:46:14;39.20;;;20.93;;
6412;SDS011;3239;48.714;9.472;2022-12-20T03:48:40;34.83;;;19.00;;
6412;SDS011;3239;48.714;9.472;2022-12-20T03:51:07;42.27;;;20.07;;
6412;SDS011;3239;48.714;9.472;2022-12-20T03:53:32;44.83;;;22.00;;
6412;SDS011;3239;48.714;9.472;2022-12-20T03:55:58;46.30;;;22.00;;
6412;SDS011;3239;48.714;9.472;2022-12-20T03:58:24;49.03;;;22.60;;
6412;SDS011;3239;48.714;9.472;2022-12-20T04:00:50;38.87;;;20.33;;
6412;SDS011;3239;48.714;9.472;2022-12-20T04:03:16;38.57;;;20.47;;
6412;SDS011;3239;48.714;9.472;2022-12-20T04:05:42;34.73;;;18.70;;
6412;SDS011;3239;48.714;9.472;2022-12-20T04:08:07;28.90;;;17.13;;
6412;SDS011;3239;48.714;9.472;2022-12-20T04:10:33;40.27;;;18.53;;
6412;SDS011;3239;48.714;9.472;2022-12-20T04:13:19;34.20;;;18.90;;
6412;SDS011;3239;48.714;9.472;2022-12-20T04:15:45;33.43;;;17.70;;
6412;SDS011;3239;48.714;9.472;2022-12-20T04:18:10;35.43;;;18.23;;
6412;SDS011;3239;48.714;9.472;2022-12-20T04:20:36;41.80;;;21.40;;
6412;SDS011;3239;48.714;9.472;2022-12-20T04:23:02;32.37;;;18.60;;
6412;SDS011;3239;48.714;9.472;2022-12-20T04:25:27;33.03;;;19.20;;
6412;SDS011;3239;48.714;9.472;2022-12-20T04:27:53;33.43;;;18.53;;
6412;SDS011;3239;48.714;9.472;2022-12-20T04:30:19;33.10;;;18.03;;
6412;SDS011;3239;48.714;9.472;2022-12-20T04:32:44;36.67;;;18.40;;
6412;SDS011;3239;48.714;9.472;2022-12-20T04:35:10;35.20;;;19.80;;
6412;SDS011;3239;48.714;9.472;2022-12-20T04:37:36;36.80;;;19.20;;
6412;SDS011;3239;48.714;9.472;2022-12-20T04:40:02;34.50;;;19.37;;
6412;SDS011;3239;48.714;9.472;2022-12-20T04:42:28;32.03;;;19.90;;
6412;SDS011;3239;48.714;9.472;2022-12-20T04:44:54;34.17;;;18.80;;
6412;SDS011;3239;48.714;9.472;2022-12-20T04:47:20;36.83;;;19.63;;
6412;SDS011;3239;48.714;9.472;2022-12-20T04:49:46;33.20;;;18.57;;
6412;SDS011;3239;48.714;9.472;2022-12-20T04:52:11;32.83;;;19.20;;
6412;SDS011;3239;48.714;9.472;2022-12-20T04:54:55;38.30;;;21.10;;
6412;SDS011;3239;48.714;9.472;2022-12-20T04:57:21;33.53;;;19.23;;
6412;SDS011;3239;48.714;9.472;2022-12-20T04:59:47;33.33;;;20.30;;
6412;SDS011;3239;48.714;9.472;2022-12-20T05:02:13;36.33;;;19.43;;
6412;SDS011;3239;48.714;9.472;2022-12-20T05:04:38;32.53;;;18.77;;
6412;SDS011;3239;48.714;9.472;2022-12-20T05:07:04;37.07;;;19.23;;
6412;SDS011;3239;48.714;9.472;2022-12-20T05:09:30;36.07;;;18.30;;
6412;SDS011;3239;48.714;9.472;2022-12-20T05:11:55;39.97;;;20.13;;
6412;SDS011;3239;48.714;9.472;2022-12-20T05:14:21;34.33;;;19.40;;
6412;SDS011;3239;48.714;9.472;2022-12-20T05:16:47;33.73;;;19.20;;
6412;SDS011;3239;48.714;9.472;2022-12-20T05:19:12;44.13;;;22.23;;
6412;SDS011;3239;48.714;9.472;2022-12-20T05:21:38;37.33;;;19.70;;
6412;SDS011;3239;48.714;9.472;2022-12-20T05:24:22;45.07;;;22.07;;
6412;SDS011;3239;48.714;9.472;2022-12-20T05:27:06;46.23;;;21.00;;
6412;SDS011;3239;48.714;9.472;2022-12-20T05:29:32;36.17;;;20.90;;
6412;SDS011;3239;48.714;9.472;2022-12-20T05:31:58;42.80;;;20.77;;
6412;SDS011;3239;48.714;9.472;2022-12-20T05:34:23;48.50;;;24.20;;
6412;SDS011;3239;48.714;9.472;2022-12-20T05:36:49;37.87;;;23.03;;
6412;SDS011;3239;48.714;9.472;2022-12-20T05:39:15;41.17;;;21.20;;
6412;SDS011;3239;48.714;9.472;2022-12-20T05:41:41;38.87;;;20.60;;
6412;SDS011;3239;48.714;9.472;2022-12-20T05:44:07;38.33;;;19.53;;
6412;SDS011;3239;48.714;9.472;2022-12-20T05:46:33;36.33;;;19.90;;
6412;SDS011;3239;48.714;9.472;2022-12-20T05:48:58;39.80;;;21.60;;
6412;SDS011;3239;48.714;9.472;2022-12-20T05:51:24;44.30;;;21.23;;
6412;SDS011;3239;48.714;9.472;2022-12-20T05:53:50;43.37;;;24.30;;
6412;SDS011;3239;48.714;9.472;2022-12-20T05:56:16;39.60;;;24.10;;
6412;SDS011;3239;48.714;9.472;2022-12-20T05:58:41;40.23;;;23.00;;
6412;SDS011;3239;48.714;9.472;2022-12-20T06:01:08;34.03;;;20.13;;
6412;SDS011;3239;48.714;9.472;2022-12-20T06:03:34;34.57;;;20.07;;
6412;SDS011;3239;48.714;9.472;2022-12-20T06:06:01;50.60;;;27.40;;
6412;SDS011;3239;48.714;9.472;2022-12-20T06:08:27;47.53;;;26.00;;
6412;SDS011;3239;48.714;9.472;2022-12-20T06:10:53;45.53;;;23.30;;
6412;SDS011;3239;48.714;9.472;2022-12-20T06:13:19;43.47;;;22.97;;
6412;SDS011;3239;48.714;9.472;2022-12-20T06:15:45;47.70;;;24.10;;
6412;SDS011;3239;48.714;9.472;2022-12-20T06:18:11;45.47;;;25.10;;
6412;SDS011;3239;48.714;9.472;2022-12-20T06:20:38;40.87;;;24.10;;
6412;SDS011;3239;48.714;9.472;2022-12-20T06:23:03;45.33;;;23.63;;
6412;SDS011;3239;48.714;9.472;2022-12-20T06:25:29;37.57;;;21.57;;
6412;SDS011;3239;48.714;9.472;2022-12-20T06:27:55;31.40;;;18.77;;
6412;SDS011;3239;48.714;9.472;2022-12-20T06:30:21;37.37;;;21.50;;
6412;SDS011;3239;48.714;9.472;2022-12-20T06:32:47;33.83;;;19.70;;
6412;SDS011;3239;48.714;9.472;2022-12-20T06:35:13;37.50;;;18.30;;
6412;SDS011;3239;48.714;9.472;2022-12-20T06:37:39;35.27;;;20.00;;
6412;SDS011;3239;48.714;9.472;2022-12-20T06:40:07;42.67;;;21.50;;
6412;SDS011;3239;48.714;9.472;2022-12-20T06:42:35;39.53;;;20.90;;
6412;SDS011;3239;48.714;9.472;2022-12-20T06:45:01;42.83;;;21.97;;
6412;SDS011;3239;48.714;9.472;2022-12-20T06:47:27;38.07;;;21.73;;
6412;SDS011;3239;48.714;9.472;2022-12-20T06:49:52;41.27;;;20.60;;
6412;SDS011;3239;48.714;9.472;2022-12-20T06:52:18;33.27;;;20.07;;
6412;SDS011;3239;48.714;9.472;2022-12-20T06:54:44;33.50;;;19.83;;
6412;SDS011;3239;48.714;9.472;2022-12-20T06:57:10;36.27;;;20.93;;
6412;SDS011;3239;48.714;9.472;2022-12-20T06:59:35;37.33;;;22.20;;
6412;SDS011;3239;48.714;9.472;2022-12-20T07:02:01;38.30;;;19.47;;
6412;SDS011;3239;48.714;9.472;2022-12-20T07:04:27;41.10;;;22.40;;
6412;SDS011;3239;48.714;9.472;2022-12-20T07:06:52;49.60;;;26.97;;
6412;SDS011;3239;48.714;9.472;2022-12-20T07:09:18;91.80;;;46.47;;
6412;SDS011;3239;48.714;9.472;2022-12-20T07:11:44;79.67;;;41.57;;
6412;SDS011;3239;48.714;9.472;2022-12-20T07:14:10;53.37;;;29.00;;
6412;SDS011;3239;48.714;9.472;2022-12-20T07:16:36;67.27;;;32.03;;
6412;SDS011;3239;48.714;9.472;2022-12-20T07:19:01;57.93;;;31.87;;
6412;SDS011;3239;48.714;9.472;2022-12-20T07:21:27;66.27;;;35.70;;
6412;SDS011;3239;48.714;9.472;2022-12-20T07:23:53;53.30;;;32.30;;
6412;SDS011;3239;48.714;9.472;2022-12-20T07:26:19;42.43;;;25.27;;
6412;SDS011;3239;48.714;9.472;2022-12-20T07:28:45;45.30;;;24.67;;
6412;SDS011;3239;48.714;9.472;2022-12-20T07:31:11;51.83;;;28.17;;
6412;SDS011;3239;48.714;9.472;2022-12-20T07:33:37;42.73;;;25.97;;
6412;SDS011;3239;48.714;9.472;2022-12-20T07:36:04;48.43;;;28.40;;
6412;SDS011;3239;48.714;9.472;2022-12-20T07:38:35;38.17;;;23.13;;
6412;SDS011;3239;48.714;9.472;2022-12-20T07:41:11;47.77;;;28.97;;
6412;SDS011;3239;48.714;9.472;2022-12-20T07:43:44;51.60;;;28.20;;
6412;SDS011;3239;48.714;9.472;2022-12-20T07:46:11;54.73;;;29.70;;
6412;SDS011;3239;48.714;9.472;2022-12-20T07:48:38;49.77;;;27.43;;
6412;SDS011;3239;48.714;9.472;2022-12-20T07:51:08;51.30;;;29.47;;
6412;SDS011;3239;48.714;9.472;2022-12-20T07:53:52;45.00;;;26.23;;
6412;SDS011;3239;48.714;9.472;2022-12-20T07:56:35;52.83;;;29.83;;
6412;SDS011;3239;48.714;9.472;2022-12-20T07:59:06;51.03;;;27.90;;
6412;SDS011;3239;48.714;9.472;2022-12-20T08:01:36;48.27;;;28.10;;
6412;SDS011;3239;48.714;9.472;2022-12-20T08:04:03;53.20;;;29.70;;
6412;SDS011;3239;48.714;9.472;2022-12-20T08:06:35;51.03;;;29.73;;
6412;SDS011;3239;48.714;9.472;2022-12-20T08:09:03;48.17;;;27.73;;
6412;SDS011;3239;48.714;9.472;2022-12-20T08:11:30;51.47;;;27.90;;
6412;SDS011;3239;48.714;9.472;2022-12-20T08:14:00;49.10;;;26.30;;
6412;SDS011;3239;48.714;9.472;2022-12-20T08:16:26;53.90;;;28.87;;
6412;SDS011;3239;48.714;9.472;2022-12-20T08:18:52;47.20;;;27.10;;
6412;SDS011;3239;48.714;9.472;2022-12-20T08:21:17;52.33;;;26.80;;
6412;SDS011;3239;48.714;9.472;2022-12-20T08:23:43;50.37;;;25.93;;
6412;SDS011;3239;48.714;9.472;2022-12-20T08:26:09;39.93;;;23.27;;
6412;SDS011;3239;48.714;9.472;2022-12-20T08:28:35;46.00;;;25.87;;
6412;SDS011;3239;48.714;9.472;2022-12-20T08:31:02;40.80;;;25.53;;
6412;SDS011;3239;48.714;9.472;2022-12-20T08:33:31;44.13;;;24.40;;
6412;SDS011;3239;48.714;9.472;2022-12-20T08:35:59;41.77;;;24.67;;
6412;SDS011;3239;48.714;9.472;2022-12-20T08:38:28;40.67;;;23.30;;
6412;SDS011;3239;48.714;9.472;2022-12-20T08:40:55;44.00;;;25.30;;
6412;SDS011;3239;48.714;9.472;2022-12-20T08:43:26;41.07;;;24.03;;
6412;SDS011;3239;48.714;9.472;2022-12-20T08:45:52;40.40;;;23.63;;
6412;SDS011;3239;48.714;9.472;2022-12-20T08:48:19;38.17;;;24.37;;
6412;SDS011;3239;48.714;9.472;2022-12-20T08:50:46;40.23;;;23.50;;
6412;SDS011;3239;48.714;9.472;2022-12-20T08:53:12;43.33;;;25.40;;
6412;SDS011;3239;48.714;9.472;2022-12-20T08:55:38;45.17;;;24.50;;
6412;SDS011;3239;48.714;9.472;2022-12-20T08:58:04;42.97;;;23.83;;
6412;SDS011;3239;48.714;9.472;2022-12-20T09:00:30;40.73;;;24.03;;
6412;SDS011;3239;48.714;9.472;2022-12-20T09:02:55;41.77;;;23.67;;
6412;SDS011;3239;48.714;9.472;2022-12-20T09:05:21;45.27;;;27.50;;
6412;SDS011;3239;48.714;9.472;2022-12-20T09:07:47;42.17;;;25.97;;
6412;SDS011;3239;48.714;9.472;2022-12-20T09:10:12;49.57;;;27.33;;
6412;SDS011;3239;48.714;9.472;2022-12-20T09:12:38;42.87;;;24.63;;
6412;SDS011;3239;48.714;9.472;2022-12-20T09:15:04;36.17;;;22.57;;
6412;SDS011;3239;48.714;9.472;2022-12-20T09:17:32;47.27;;;23.93;;
6412;SDS011;3239;48.714;9.472;2022-12-20T09:19:57;46.67;;;24.07;;
6412;SDS011;3239;48.714;9.472;2022-12-20T09:22:23;42.37;;;23.43;;
6412;SDS011;3239;48.714;9.472;2022-12-20T09:24:49;48.23;;;26.57;;
6412;SDS011;3239;48.714;9.472;2022-12-20T09:27:15;48.70;;;27.00;;
6412;SDS011;3239;48.714;9.472;2022-12-20T09:29:40;45.80;;;25.17;;
6412;SDS011;3239;48.714;9.472;2022-12-20T09:32:06;36.73;;;22.43;;
6412;SDS011;3239;48.714;9.472;2022-12-20T09:34:32;36.90;;;21.70;;
6412;SDS011;3239;48.714;9.472;2022-12-20T09:36:58;35.83;;;20.10;;
6412;SDS011;3239;48.714;9.472;2022-12-20T09:39:24;30.33;;;18.47;;
6412;SDS011;3239;48.714;9.472;2022-12-20T09:41:49;34.50;;;20.00;;
6412;SDS011;3239;48.714;9.472;2022-12-20T09:44:37;28.87;;;18.87;;
6412;SDS011;3239;48.714;9.472;2022-12-20T09:47:05;29.60;;;17.80;;
6412;SDS011;3239;48.714;9.472;2022-12-20T09:49:47;36.00;;;19.83;;
6412;SDS011;3239;48.714;9.472;2022-12-20T09:55:26;38.47;;;21.70;;
6412;SDS011;3239;48.714;9.472;2022-12-20T10:00:47;34.23;;;20.00;;
6412;SDS011;3239;48.714;9.472;2022-12-20T10:03:19;37.97;;;22.20;;
6412;SDS011;3239;48.714;9.472;2022-12-20T10:05:53;41.80;;;23.57;;
6412;SDS011;3239;48.714;9.472;2022-12-20T10:16:52;34.20;;;22.73;;
6412;SDS011;3239;48.714;9.472;2022-12-20T10:22:09;36.53;;;21.93;;
6412;SDS011;3239;48.714;9.472;2022-12-20T10:25:01;35.40;;;22.03;;
6412;SDS011;3239;48.714;9.472;2022-12-20T10:27:45;33.73;;;20.93;;
6412;SDS011;3239;48.714;9.472;2022-12-20T10:30:17;33.23;;;19.43;;
6412;SDS011;3239;48.714;9.472;2022-12-20T10:32:47;31.87;;;20.33;;
6412;SDS011;3239;48.714;9.472;2022-12-20T10:35:29;37.20;;;21.80;;
6412;SDS011;3239;48.714;9.472;2022-12-20T10:38:05;35.83;;;20.70;;
6412;SDS011;3239;48.714;9.472;2022-12-20T10:43:15;36.70;;;19.30;;
6412;SDS011;3239;48.714;9.472;2022-12-20T10:45:56;33.23;;;19.20;;
6412;SDS011;3239;48.714;9.472;2022-12-20T10:50:56;28.17;;;18.70;;
6412;SDS011;3239;48.714;9.472;2022-12-20T10:53:36;36.20;;;19.37;;
6412;SDS011;3239;48.714;9.472;2022-12-20T10:59:00;30.73;;;18.50;;
6412;SDS011;3239;48.714;9.472;2022-12-20T11:01:45;34.47;;;20.20;;
6412;SDS011;3239;48.714;9.472;2022-12-20T11:07:01;33.43;;;19.03;;
6412;SDS011;3239;48.714;9.472;2022-12-20T11:09:58;31.57;;;18.67;;
6412;SDS011;3239;48.714;9.472;2022-12-20T11:12:28;38.23;;;22.40;;
6412;SDS011;3239;48.714;9.472;2022-12-20T11:15:07;29.30;;;19.17;;
6412;SDS011;3239;48.714;9.472;2022-12-20T11:17:44;35.73;;;22.20;;
6412;SDS011;3239;48.714;9.472;2022-12-20T11:29:07;33.73;;;19.77;;
6412;SDS011;3239;48.714;9.472;2022-12-20T11:31:52;27.53;;;18.60;;
6412;SDS011;3239;48.714;9.472;2022-12-20T11:37:18;35.50;;;19.60;;
6412;SDS011;3239;48.714;9.472;2022-12-20T11:39:58;34.53;;;19.53;;
6412;SDS011;3239;48.714;9.472;2022-12-20T11:42:51;30.63;;;18.60;;
6412;SDS011;3239;48.714;9.472;2022-12-20T11:45:44;28.40;;;17.40;;
6412;SDS011;3239;48.714;9.472;2022-12-20T11:51:39;32.80;;;17.87;;
6412;SDS011;3239;48.714;9.472;2022-12-20T11:57:17;34.07;;;18.67;;
6412;SDS011;3239;48.714;9.472;2022-12-20T11:59:56;29.17;;;17.33;;
6412;SDS011;3239;48.714;9.472;2022-12-20T12:05:14;36.03;;;21.27;;
6412;SDS011;3239;48.714;9.472;2022-12-20T12:08:17;33.30;;;20.80;;
6412;SDS011;3239;48.714;9.472;2022-12-20T12:10:59;32.47;;;20.40;;
6412;SDS011;3239;48.714;9.472;2022-12-20T12:13:39;32.03;;;19.27;;
6412;SDS011;3239;48.714;9.472;2022-12-20T12:16:15;37.40;;;20.50;;
6412;SDS011;3239;48.714;9.472;2022-12-20T12:18:42;35.30;;;19.20;;
6412;SDS011;3239;48.714;9.472;2022-12-20T12:21:27;27.60;;;17.17;;
6412;SDS011;3239;48.714;9.472;2022-12-20T12:24:17;30.17;;;18.77;;
6412;SDS011;3239;48.714;9.472;2022-12-20T12:26:46;36.40;;;19.80;;
6412;SDS011;3239;48.714;9.472;2022-12-20T12:29:13;39.27;;;21.43;;
6412;SDS011;3239;48.714;9.472;2022-12-20T12:46:17;39.20;;;22.17;;
6412;SDS011;3239;48.714;9.472;2022-12-20T12:51:33;38.23;;;21.30;;
6412;SDS011;3239;48.714;9.472;2022-12-20T12:56:58;28.50;;;17.57;;
6412;SDS011;3239;48.714;9.472;2022-12-20T12:59:45;27.20;;;17.90;;
6412;SDS011;3239;48.714;9.472;2022-12-20T13:20:32;29.10;;;18.97;;
6412;SDS011;3239;48.714;9.472;2022-12-20T13:33:42;28.83;;;16.60;;
6412;SDS011;3239;48.714;9.472;2022-12-20T13:38:59;26.07;;;17.40;;
6412;SDS011;3239;48.714;9.472;2022-12-20T13:41:45;31.30;;;18.60;;
6412;SDS011;3239;48.714;9.472;2022-12-20T13:46:41;28.37;;;16.40;;
6412;SDS011;3239;48.714;9.472;2022-12-20T13:49:44;25.80;;;17.07;;
6412;SDS011;3239;48.714;9.472;2022-12-20T13:54:42;33.83;;;19.57;;
6412;SDS011;3239;48.714;9.472;2022-12-20T13:57:32;30.30;;;18.17;;
6412;SDS011;3239;48.714;9.472;2022-12-20T14:00:21;31.67;;;17.27;;
6412;SDS011;3239;48.714;9.472;2022-12-20T14:02:49;26.40;;;18.13;;
6412;SDS011;3239;48.714;9.472;2022-12-20T14:05:21;29.00;;;19.30;;
6412;SDS011;3239;48.714;9.472;2022-12-20T14:07:54;30.80;;;18.97;;
6412;SDS011;3239;48.714;9.472;2022-12-20T14:10:27;29.77;;;17.87;;
6412;SDS011;3239;48.714;9.472;2022-12-20T14:12:55;24.90;;;17.60;;
6412;SDS011;3239;48.714;9.472;2022-12-20T14:15:32;32.23;;;17.90;;
6412;SDS011;3239;48.714;9.472;2022-12-20T14:18:15;21.30;;;15.70;;
6412;SDS011;3239;48.714;9.472;2022-12-20T14:21:07;26.30;;;18.10;;
6412;SDS011;3239;48.714;9.472;2022-12-20T14:23:35;31.30;;;19.27;;
6412;SDS011;3239;48.714;9.472;2022-12-20T14:26:06;28.77;;;19.73;;
6412;SDS011;3239;48.714;9.472;2022-12-20T14:29:00;37.50;;;21.47;;
6412;SDS011;3239;48.714;9.472;2022-12-20T14:31:28;29.00;;;18.10;;
6412;SDS011;3239;48.714;9.472;2022-12-20T14:34:05;30.23;;;18.90;;
6412;SDS011;3239;48.714;9.472;2022-12-20T14:36:41;31.07;;;19.80;;
6412;SDS011;3239;48.714;9.472;2022-12-20T14:39:26;40.27;;;24.03;;
6412;SDS011;3239;48.714;9.472;2022-12-20T14:41:58;41.77;;;24.67;;
6412;SDS011;3239;48.714;9.472;2022-12-20T14:44:38;47.63;;;22.73;;
6412;SDS011;3239;48.714;9.472;2022-12-20T14:47:12;33.20;;;20.67;;
6412;SDS011;3239;48.714;9.472;2022-12-20T14:49:54;32.40;;;19.00;;
6412;SDS011;3239;48.714;9.472;2022-12-20T14:52:37;27.40;;;17.27;;
6412;SDS011;3239;48.714;9.472;2022-12-20T14:55:51;31.67;;;18.90;;
6412;SDS011;3239;48.714;9.472;2022-12-20T14:58:22;33.07;;;18.50;;
6412;SDS011;3239;48.714;9.472;2022-12-20T15:00:55;28.27;;;17.67;;
6412;SDS011;3239;48.714;9.472;2022-12-20T15:03:49;31.23;;;19.83;;
6412;SDS011;3239;48.714;9.472;2022-12-20T15:06:50;26.93;;;17.77;;
6412;SDS011;3239;48.714;9.472;2022-12-20T15:09:12;32.63;;;18.00;;
6412;SDS011;3239;48.714;9.472;2022-12-20T15:11:38;26.70;;;18.03;;
6412;SDS011;3239;48.714;9.472;2022-12-20T15:14:18;30.10;;;18.80;;
6412;SDS011;3239;48.714;9.472;2022-12-20T15:17:00;31.63;;;18.50;;
6412;SDS011;3239;48.714;9.472;2022-12-20T15:19:32;34.40;;;18.60;;
6412;SDS011;3239;48.714;9.472;2022-12-20T15:21:58;27.67;;;17.10;;
6412;SDS011;3239;48.714;9.472;2022-12-20T15:24:25;28.37;;;19.10;;
6412;SDS011;3239;48.714;9.472;2022-12-20T15:26:52;28.70;;;19.10;;
6412;SDS011;3239;48.714;9.472;2022-12-20T15:29:23;33.33;;;18.77;;
6412;SDS011;3239;48.714;9.472;2022-12-20T15:31:55;26.77;;;16.80;;
6412;SDS011;3239;48.714;9.472;2022-12-20T15:34:38;29.47;;;17.33;;
6412;SDS011;3239;48.714;9.472;2022-12-20T15:37:04;29.93;;;18.10;;
6412;SDS011;3239;48.714;9.472;2022-12-20T15:39:31;28.60;;;17.87;;
6412;SDS011;3239;48.714;9.472;2022-12-20T15:41:59;33.77;;;17.90;;
6412;SDS011;3239;48.714;9.472;2022-12-20T15:44:28;38.43;;;18.73;;
6412;SDS011;3239;48.714;9.472;2022-12-20T15:46:55;29.63;;;16.90;;
6412;SDS011;3239;48.714;9.472;2022-12-20T15:49:22;22.00;;;14.40;;
6412;SDS011;3239;48.714;9.472;2022-12-20T15:51:56;22.47;;;14.13;;
6412;SDS011;3239;48.714;9.472;2022-12-20T15:54:29;20.57;;;13.37;;
6412;SDS011;3239;48.714;9.472;2022-12-20T15:57:04;20.33;;;12.70;;
6412;SDS011;3239;48.714;9.472;2022-12-20T15:59:33;19.20;;;11.53;;
6412;SDS011;3239;48.714;9.472;2022-12-20T16:02:00;19.47;;;11.63;;
6412;SDS011;3239;48.714;9.472;2022-12-20T16:04:26;36.90;;;18.57;;
6412;SDS011;3239;48.714;9.472;2022-12-20T16:06:55;35.80;;;18.60;;
6412;SDS011;3239;48.714;9.472;2022-12-20T16:09:21;29.17;;;19.50;;
6412;SDS011;3239;48.714;9.472;2022-12-20T16:11:49;35.27;;;20.27;;
6412;SDS011;3239;48.714;9.472;2022-12-20T16:14:16;41.03;;;22.77;;
6412;SDS011;3239;48.714;9.472;2022-12-20T16:16:45;30.17;;;18.87;;
6412;SDS011;3239;48.714;9.472;2022-12-20T16:19:13;28.37;;;18.40;;
6412;SDS011;3239;48.714;9.472;2022-12-20T16:21:41;36.47;;;20.80;;
6412;SDS011;3239;48.714;9.472;2022-12-20T16:24:14;36.60;;;21.37;;
6412;SDS011;3239;48.714;9.472;2022-12-20T16:26:44;30.90;;;19.13;;
6412;SDS011;3239;48.714;9.472;2022-12-20T16:29:11;32.80;;;18.97;;
6412;SDS011;3239;48.714;9.472;2022-12-20T16:31:38;24.67;;;16.07;;
6412;SDS011;3239;48.714;9.472;2022-12-20T16:34:08;27.70;;;18.60;;
6412;SDS011;3239;48.714;9.472;2022-12-20T16:36:40;31.70;;;19.13;;
6412;SDS011;3239;48.714;9.472;2022-12-20T16:39:06;25.47;;;16.60;;
6412;SDS011;3239;48.714;9.472;2022-12-20T16:41:34;23.20;;;16.07;;
6412;SDS011;3239;48.714;9.472;2022-12-20T16:44:02;23.83;;;15.03;;
6412;SDS011;3239;48.714;9.472;2022-12-20T16:46:29;23.03;;;14.60;;
6412;SDS011;3239;48.714;9.472;2022-12-20T16:48:57;23.93;;;15.23;;
6412;SDS011;3239;48.714;9.472;2022-12-20T16:51:31;23.90;;;15.73;;
6412;SDS011;3239;48.714;9.472;2022-12-20T16:54:13;42.53;;;19.50;;
6412;SDS011;3239;48.714;9.472;2022-12-20T16:56:45;30.00;;;18.47;;
6412;SDS011;3239;48.714;9.472;2022-12-20T16:59:11;28.23;;;18.43;;
6412;SDS011;3239;48.714;9.472;2022-12-20T17:01:38;28.90;;;17.13;;
6412;SDS011;3239;48.714;9.472;2022-12-20T17:04:08;27.30;;;17.20;;
6412;SDS011;3239;48.714;9.472;2022-12-20T17:06:39;33.17;;;16.13;;
6412;SDS011;3239;48.714;9.472;2022-12-20T17:09:06;21.20;;;15.13;;
6412;SDS011;3239;48.714;9.472;2022-12-20T17:11:32;35.37;;;19.23;;
6412;SDS011;3239;48.714;9.472;2022-12-20T17:13:58;26.27;;;16.83;;